Time;durP1;ratioP1;P1;durP2;ratioP2;P2;SDS_P1;SDS_P2;PMS_P1;PMS_P2;Temp;Humidity;BMP_temperature;BMP_pressure;BME280_temperature;BME280_humidity;BME280_pressure;Samples;Min_cycle;Max_cycle;Signal;HPM_P1;HPM_P2
2022/03/13 00:01:11;;;;;;;17.00;9.60;;;;;;;9.30;38.59;100609.22;5128703;27;20193;-64
2022/03/13 00:03:39;;;;;;;17.27;10.00;;;;;;;9.33;38.51;100602.78;5124889;27;20658;-64
2022/03/13 00:06:09;;;;;;;18.20;10.67;;;;;;;8.90;39.14;100603.09;5124195;27;20236;-64
2022/03/13 00:08:38;;;;;;;18.57;10.37;;;;;;;9.16;38.79;100606.94;5125807;27;20283;-64
2022/03/13 00:11:08;;;;;;;19.53;10.67;;;;;;;9.16;38.36;100601.66;5125487;27;20668;-63
2022/03/13 00:13:42;;;;;;;15.03;10.30;;;;;;;9.10;38.64;100604.00;5127279;27;20243;-64
2022/03/13 00:16:10;;;;;;;19.40;11.83;;;;;;;9.15;38.15;100602.63;5129062;27;20513;-64
2022/03/13 00:18:41;;;;;;;18.63;11.07;;;;;;;9.29;37.99;100601.41;5129292;27;20229;-63
2022/03/13 00:21:11;;;;;;;21.93;10.97;;;;;;;9.07;37.87;100602.47;5127679;27;20224;-65
2022/03/13 00:23:40;;;;;;;16.07;10.10;;;;;;;9.01;38.34;100595.91;5124422;27;20213;-63
2022/03/13 00:26:09;;;;;;;20.37;10.17;;;;;;;9.22;37.81;100602.94;5124428;27;20211;-63
2022/03/13 00:28:59;;;;;;;21.57;10.97;;;;;;;8.99;38.29;100592.56;5126997;27;20201;-63
2022/03/13 00:31:40;;;;;;;19.90;10.63;;;;;;;8.91;38.60;100589.75;5125604;27;20263;-64
2022/03/13 00:34:13;;;;;;;16.20;9.63;;;;;;;8.99;38.24;100592.56;5127467;27;20316;-63
2022/03/13 00:36:41;;;;;;;18.33;9.73;;;;;;;9.16;37.81;100600.81;5126915;27;20621;-65
2022/03/13 00:39:10;;;;;;;20.73;11.40;;;;;;;9.04;38.18;100589.53;5124298;27;20223;-64
2022/03/13 00:41:37;;;;;;;17.93;10.17;;;;;;;8.94;37.97;100592.16;5122723;27;20215;-64
2022/03/13 00:44:17;;;;;;;17.97;10.07;;;;;;;9.11;37.65;100588.00;5122170;27;20646;-63
2022/03/13 00:46:44;;;;;;;16.63;9.73;;;;;;;9.12;37.55;100589.69;5126752;27;20229;-64
2022/03/13 00:49:12;;;;;;;18.23;9.93;;;;;;;9.03;37.67;100588.69;5124162;27;20204;-64
2022/03/13 00:51:40;;;;;;;18.67;10.67;;;;;;;9.03;37.76;100586.03;5124725;27;20577;-65
2022/03/13 00:54:08;;;;;;;19.00;10.57;;;;;;;9.01;37.55;100579.22;5125381;27;20699;-64
2022/03/13 00:56:36;;;;;;;16.33;10.27;;;;;;;8.73;38.18;100582.59;5126188;27;20224;-64
2022/03/13 00:59:03;;;;;;;19.07;10.73;;;;;;;8.77;38.33;100584.00;5125022;27;20215;-64
2022/03/13 01:01:32;;;;;;;16.47;10.40;;;;;;;8.87;38.01;100584.88;5126455;27;20829;-65
2022/03/13 01:04:14;;;;;;;15.83;10.33;;;;;;;8.95;37.87;100575.31;5126400;27;20212;-65
2022/03/13 01:06:42;;;;;;;24.17;11.00;;;;;;;9.00;37.66;100572.25;5124942;27;20201;-65
2022/03/13 01:09:10;;;;;;;18.63;10.83;;;;;;;8.84;37.72;100574.56;5124694;27;20520;-64
2022/03/13 01:11:38;;;;;;;16.57;9.70;;;;;;;8.55;38.16;100575.28;5125620;27;20204;-63
2022/03/13 01:14:05;;;;;;;18.90;11.00;;;;;;;8.66;38.26;100572.56;5126103;27;20851;-64
2022/03/13 01:16:39;;;;;;;21.97;10.43;;;;;;;8.63;38.24;100566.69;5125503;27;20688;-63
2022/03/13 01:19:08;;;;;;;18.57;9.90;;;;;;;8.82;37.60;100565.91;5125469;27;20204;-64
2022/03/13 01:21:38;;;;;;;16.93;9.63;;;;;;;8.47;38.32;100571.63;5126776;27;20430;-64
2022/03/13 01:24:27;;;;;;;21.17;10.43;;;;;;;8.34;38.31;100569.22;5124328;27;20265;-65
2022/03/13 01:27:00;;;;;;;18.70;10.93;;;;;;;8.37;38.53;100566.28;5123223;27;20232;-65
2022/03/13 01:29:36;;;;;;;20.13;10.27;;;;;;;8.67;37.94;100558.38;5123159;27;20254;-64
2022/03/13 01:32:09;;;;;;;18.60;10.73;;;;;;;8.44;38.20;100559.53;5124242;27;20251;-63
2022/03/13 01:34:48;;;;;;;21.93;9.83;;;;;;;8.17;38.85;100572.44;5117976;27;20212;-63
2022/03/13 01:37:27;;;;;;;17.03;9.87;;;;;;;8.13;38.64;100573.66;5118626;27;20245;-64
2022/03/13 01:39:55;;;;;;;19.77;10.30;;;;;;;8.20;38.44;100565.06;5119510;27;20243;-64
2022/03/13 01:42:31;;;;;;;19.63;10.40;;;;;;;8.44;37.99;100572.75;5125034;27;20240;-64
2022/03/13 01:45:18;;;;;;;18.47;9.97;;;;;;;8.25;38.20;100562.88;5125509;27;20310;-64
2022/03/13 01:47:50;;;;;;;17.27;10.70;;;;;;;8.15;38.43;100564.63;5124956;27;20372;-64
2022/03/13 01:50:18;;;;;;;17.10;9.83;;;;;;;8.26;38.53;100564.56;5124082;27;20287;-64
2022/03/13 01:52:48;;;;;;;18.40;9.90;;;;;;;8.47;37.92;100561.91;5127028;27;20623;-65
2022/03/13 01:55:17;;;;;;;18.77;9.97;;;;;;;8.11;38.20;100549.16;5126229;27;20227;-63
2022/03/13 01:57:47;;;;;;;19.27;9.37;;;;;;;8.01;38.71;100558.81;5126306;27;20272;-64
2022/03/13 02:00:17;;;;;;;19.83;9.40;;;;;;;8.11;38.61;100560.56;5123859;27;20207;-64
2022/03/13 02:02:47;;;;;;;20.37;9.87;;;;;;;8.14;38.57;100565.59;5125239;27;20532;-64
2022/03/13 02:05:33;;;;;;;18.37;10.10;;;;;;;8.42;38.01;100563.28;5125939;27;20300;-64
2022/03/13 02:08:05;;;;;;;20.53;10.97;;;;;;;8.28;37.93;100565.25;5123628;27;20225;-65
2022/03/13 02:10:33;;;;;;;20.00;9.73;;;;;;;8.23;38.07;100561.34;5123836;27;20712;-64
2022/03/13 02:13:07;;;;;;;15.10;9.80;;;;;;;8.26;38.23;100559.28;5125517;27;20310;-65
2022/03/13 02:15:34;;;;;;;16.37;9.70;;;;;;;8.37;37.63;100555.72;5124037;27;20212;-64
2022/03/13 02:18:03;;;;;;;19.33;10.10;;;;;;;8.04;38.23;100550.66;5125488;27;20201;-65
2022/03/13 02:20:39;;;;;;;19.17;10.27;;;;;;;8.00;38.32;100555.38;5124833;27;20827;-64
2022/03/13 02:23:16;;;;;;;16.57;10.27;;;;;;;7.63;38.43;100549.69;5124576;27;20219;-64
2022/03/13 02:25:44;;;;;;;15.73;9.43;;;;;;;7.79;38.86;100550.09;5124277;27;20206;-65
2022/03/13 02:28:16;;;;;;;16.47;9.83;;;;;;;7.88;38.46;100541.38;5125906;27;20285;-64
2022/03/13 02:30:44;;;;;;;20.17;10.50;;;;;;;7.56;38.77;100544.06;5123191;27;20214;-65
2022/03/13 02:33:12;;;;;;;14.87;10.00;;;;;;;7.97;38.18;100539.78;5124581;27;20206;-64
2022/03/13 02:35:40;;;;;;;18.57;9.77;;;;;;;8.06;37.94;100533.72;5123672;27;20240;-64
2022/03/13 02:38:12;;;;;;;16.17;10.33;;;;;;;7.73;38.40;100539.22;5130584;27;20226;-64
2022/03/13 02:40:40;;;;;;;16.27;9.63;;;;;;;7.68;38.52;100534.28;5132358;27;20577;-64
2022/03/13 02:43:08;;;;;;;17.37;9.60;;;;;;;8.01;37.83;100537.69;5128354;27;20208;-64
2022/03/13 02:45:38;;;;;;;17.23;9.47;;;;;;;8.12;37.87;100540.28;5127606;27;20310;-63
2022/03/13 02:48:08;;;;;;;20.10;10.80;;;;;;;7.86;38.33;100535.41;5128338;27;20294;-65
2022/03/13 02:50:37;;;;;;;19.83;10.63;;;;;;;8.00;37.81;100530.78;5130401;27;20222;-66
2022/03/13 02:53:08;;;;;;;20.63;10.37;;;;;;;8.11;38.07;100533.31;5128461;27;20682;-63
2022/03/13 02:55:39;;;;;;;15.53;9.30;;;;;;;7.66;38.66;100530.09;5127263;27;20232;-64
2022/03/13 02:58:12;;;;;;;18.80;9.80;;;;;;;7.91;38.62;100541.16;5131623;27;20234;-64
2022/03/13 03:00:46;;;;;;;15.90;9.57;;;;;;;7.84;38.69;100537.31;5127582;27;20211;-63
2022/03/13 03:03:18;;;;;;;17.77;10.50;;;;;;;7.93;38.42;100531.25;5130656;27;20304;-64
2022/03/13 03:05:48;;;;;;;17.13;9.97;;;;;;;7.98;38.32;100533.53;5128182;27;20299;-65
2022/03/13 03:08:16;;;;;;;16.60;10.23;;;;;;;7.63;39.54;100535.66;5129488;27;20637;-65
2022/03/13 03:10:45;;;;;;;21.67;9.73;;;;;;;7.65;39.11;100537.19;5125176;27;20709;-64
2022/03/13 03:13:15;;;;;;;20.20;10.77;;;;;;;7.75;39.10;100532.81;5128030;27;20240;-64
2022/03/13 03:15:43;;;;;;;19.10;10.33;;;;;;;7.79;39.28;100536.88;5127104;27;20232;-65
2022/03/13 03:18:20;;;;;;;18.37;10.50;;;;;;;7.81;39.24;100531.47;5131161;27;20208;-64
2022/03/13 03:20:59;;;;;;;;;;;;;;;;;;;;;
2022/03/13 03:23:35;;;;;;;16.17;9.80;;;;;;;7.42;40.00;100535.63;5126426;27;20203;-64
2022/03/13 03:26:06;;;;;;;19.00;10.60;;;;;;;7.60;40.08;100536.75;5130108;27;20206;-64
2022/03/13 03:28:35;;;;;;;16.83;9.20;;;;;;;7.28;40.86;100538.56;5127130;27;20212;-64
2022/03/13 03:31:03;;;;;;;18.00;10.40;;;;;;;7.13;40.83;100535.34;5126576;27;20209;-64
2022/03/13 03:33:31;;;;;;;15.80;9.30;;;;;;;6.91;42.01;100531.00;5123368;27;20220;-63
2022/03/13 03:35:59;;;;;;;18.07;10.20;;;;;;;6.71;42.73;100540.47;5128479;27;20324;-64
2022/03/13 03:38:27;;;;;;;18.50;10.10;;;;;;;7.02;42.04;100536.25;5125187;27;20213;-63
2022/03/13 03:41:06;;;;;;;21.10;11.07;;;;;;;7.01;41.88;100537.19;5126796;27;20329;-62
2022/03/13 03:43:46;;;;;;;18.30;10.40;;;;;;;6.95;41.59;100532.41;5124763;27;20207;-64
2022/03/13 03:46:16;;;;;;;16.20;10.03;;;;;;;7.03;41.91;100530.00;5128525;27;20221;-63
2022/03/13 03:48:44;;;;;;;20.67;10.70;;;;;;;7.18;41.69;100531.41;5126809;27;20764;-63
2022/03/13 03:51:12;;;;;;;19.43;11.27;;;;;;;7.22;41.45;100529.34;5128217;27;20203;-64
2022/03/13 03:53:39;;;;;;;17.33;10.17;;;;;;;7.10;41.71;100531.19;5125198;27;20216;-64
2022/03/13 03:56:07;;;;;;;18.53;10.57;;;;;;;6.81;42.24;100535.31;5129047;27;20258;-65
2022/03/13 03:58:36;;;;;;;19.63;11.03;;;;;;;6.74;42.43;100529.69;5127008;27;20293;-63
2022/03/13 04:01:04;;;;;;;18.87;11.03;;;;;;;6.89;42.20;100527.63;5126680;27;20306;-63
2022/03/13 04:03:32;;;;;;;17.27;10.33;;;;;;;6.79;42.64;100534.59;5125626;27;20261;-62
2022/03/13 04:06:12;;;;;;;18.90;10.33;;;;;;;6.82;42.36;100531.72;5120907;27;20215;-64
2022/03/13 04:08:40;;;;;;;19.23;10.77;;;;;;;7.01;41.90;100523.19;5127272;27;20267;-64
2022/03/13 04:11:08;;;;;;;17.93;11.23;;;;;;;6.71;42.61;100529.94;5129371;27;20347;-63
2022/03/13 04:13:38;;;;;;;19.50;10.17;;;;;;;6.46;43.06;100530.19;5124733;27;20734;-63
2022/03/13 04:16:08;;;;;;;18.43;10.60;;;;;;;6.59;43.10;100535.34;5128011;27;20226;-63
2022/03/13 04:18:37;;;;;;;20.40;9.83;;;;;;;6.62;43.19;100529.81;5126575;27;20240;-63
2022/03/13 04:21:06;;;;;;;18.67;11.27;;;;;;;6.50;43.28;100528.19;5127618;27;20209;-63
2022/03/13 04:23:35;;;;;;;18.70;10.80;;;;;;;6.72;43.19;100526.34;5125253;27;20221;-65
2022/03/13 04:26:10;;;;;;;18.50;10.13;;;;;;;6.88;42.98;100531.22;5127366;27;20212;-64
2022/03/13 04:28:42;;;;;;;18.40;11.40;;;;;;;6.77;43.50;100533.91;5127897;27;20731;-64
2022/03/13 04:31:11;;;;;;;18.40;10.73;;;;;;;6.88;42.95;100525.94;5124756;27;20218;-64
2022/03/13 04:33:40;;;;;;;18.93;10.57;;;;;;;6.42;43.92;100529.59;5124283;27;20861;-64
2022/03/13 04:36:10;;;;;;;20.30;11.30;;;;;;;6.43;44.08;100533.91;5128617;27;20600;-64
2022/03/13 04:38:45;;;;;;;17.87;10.63;;;;;;;6.01;45.21;100539.88;5124889;27;21977;-64
2022/03/13 04:41:13;;;;;;;21.63;11.67;;;;;;;6.20;44.78;100540.13;5129371;27;20503;-64
2022/03/13 04:43:43;;;;;;;18.50;10.73;;;;;;;6.11;44.57;100540.84;5128143;27;20214;-63
2022/03/13 04:46:41;;;;;;;18.70;10.87;;;;;;;6.18;44.32;100542.03;5128253;27;20600;-63
2022/03/13 04:49:09;;;;;;;19.93;11.03;;;;;;;6.01;44.66;100542.50;5123847;27;20620;-64
2022/03/13 04:51:37;;;;;;;16.77;9.77;;;;;;;5.73;45.56;100538.44;5126518;27;20316;-64
2022/03/13 04:54:06;;;;;;;24.37;11.00;;;;;;;5.75;45.35;100538.34;5126911;27;20684;-64
2022/03/13 04:56:34;;;;;;;21.67;10.80;;;;;;;5.75;45.10;100538.34;5129063;27;20580;-63
2022/03/13 04:59:03;;;;;;;19.43;10.03;;;;;;;6.19;44.12;100545.50;5125734;27;20202;-62
2022/03/13 05:01:31;;;;;;;24.23;10.67;;;;;;;6.12;43.98;100555.69;5124307;27;20582;-63
2022/03/13 05:03:59;;;;;;;21.93;10.93;;;;;;;6.04;44.09;100560.69;5124614;27;20209;-64
2022/03/13 05:06:28;;;;;;;19.50;10.03;;;;;;;5.98;43.88;100561.19;5124575;27;20204;-63
2022/03/13 05:08:55;;;;;;;21.87;11.30;;;;;;;6.28;43.31;100564.06;5124441;27;21364;-62
2022/03/13 05:11:23;;;;;;;18.17;9.33;;;;;;;6.36;43.27;100556.41;5128433;27;20668;-64
2022/03/13 05:13:51;;;;;;;20.20;10.80;;;;;;;6.17;43.51;100561.44;5123958;27;22565;-63
2022/03/13 05:16:20;;;;;;;23.17;11.17;;;;;;;6.04;43.59;100561.53;5126959;27;20296;-64
2022/03/13 05:18:48;;;;;;;17.10;10.20;;;;;;;6.12;43.53;100566.22;5123330;27;20205;-64
2022/03/13 05:21:17;;;;;;;18.33;10.67;;;;;;;6.52;42.72;100571.03;5126879;27;20211;-63
2022/03/13 05:23:45;;;;;;;19.20;10.27;;;;;;;6.27;43.04;100566.81;5126433;27;20210;-63
2022/03/13 05:26:13;;;;;;;17.80;10.23;;;;;;;6.19;43.51;100577.94;5129372;27;20217;-63
2022/03/13 05:28:40;;;;;;;17.13;9.70;;;;;;;5.84;44.20;100574.47;5124871;27;20214;-63
2022/03/13 05:31:08;;;;;;;20.73;10.63;;;;;;;5.91;45.11;100576.56;5125346;27;20219;-64
2022/03/13 05:33:38;;;;;;;18.80;10.87;;;;;;;5.81;45.52;100578.19;5128190;27;20210;-63
2022/03/13 05:36:07;;;;;;;19.37;10.80;;;;;;;6.09;44.88;100579.59;5123362;27;20664;-65
2022/03/13 05:38:36;;;;;;;19.53;10.47;;;;;;;5.62;45.54;100585.78;5124724;27;20355;-64
2022/03/13 05:41:06;;;;;;;19.93;11.40;;;;;;;6.04;44.58;100587.88;5126483;27;20205;-63
2022/03/13 05:43:34;;;;;;;18.63;10.57;;;;;;;6.27;43.61;100588.72;5123533;27;20633;-64
2022/03/13 05:46:02;;;;;;;20.30;10.27;;;;;;;6.33;42.54;100582.97;5124469;27;20225;-64
2022/03/13 05:48:30;;;;;;;19.77;10.23;;;;;;;6.07;43.02;100594.66;5123053;27;20911;-65
2022/03/13 05:51:01;;;;;;;17.57;9.83;;;;;;;6.00;43.64;100596.09;5124063;27;20229;-64
2022/03/13 05:53:29;;;;;;;17.73;10.13;;;;;;;5.96;43.42;100598.13;5125582;27;20215;-62
2022/03/13 05:55:56;;;;;;;15.87;9.73;;;;;;;5.88;43.56;100603.13;5125820;27;20275;-64
2022/03/13 05:58:38;;;;;;;16.60;9.83;;;;;;;6.07;42.78;100605.19;5126654;27;20220;-64
2022/03/13 06:01:08;;;;;;;17.33;10.47;;;;;;;6.06;42.61;100611.44;5123506;27;20201;-64
2022/03/13 06:03:37;;;;;;;19.80;11.23;;;;;;;6.10;42.71;100610.25;5124765;27;20288;-64
2022/03/13 06:06:06;;;;;;;21.57;10.17;;;;;;;5.95;43.35;100617.50;5126988;27;20650;-64
2022/03/13 06:08:34;;;;;;;19.70;11.03;;;;;;;6.31;42.37;100615.69;5123857;27;20630;-64
2022/03/13 06:11:01;;;;;;;20.87;12.00;;;;;;;6.21;42.50;100626.06;5122261;27;20304;-63
2022/03/13 06:13:29;;;;;;;20.23;10.67;;;;;;;6.22;42.77;100630.41;5124538;27;20270;-64
2022/03/13 06:15:58;;;;;;;22.27;11.00;;;;;;;6.16;42.45;100630.84;5124249;27;20211;-64
2022/03/13 06:18:28;;;;;;;24.87;11.07;;;;;;;6.01;43.04;100635.47;5125343;27;20225;-64
2022/03/13 06:20:57;;;;;;;21.97;10.60;;;;;;;6.44;42.42;100626.94;5124603;27;21837;-64
2022/03/13 06:23:29;;;;;;;19.43;10.73;;;;;;;6.24;43.27;100631.13;5122440;27;20297;-64
2022/03/13 06:25:58;;;;;;;21.93;11.13;;;;;;;6.02;43.74;100628.41;5124175;27;20219;-64
2022/03/13 06:28:26;;;;;;;20.50;10.63;;;;;;;6.14;43.15;100629.28;5122826;27;20208;-64
2022/03/13 06:30:55;;;;;;;17.77;10.57;;;;;;;6.00;43.24;100631.16;5124978;28;20645;-63
2022/03/13 06:33:25;;;;;;;22.20;11.57;;;;;;;6.23;42.90;100634.72;5121314;28;20205;-64
2022/03/13 06:35:53;;;;;;;19.33;10.80;;;;;;;6.06;42.92;100639.56;5125180;28;20213;-64
2022/03/13 06:38:21;;;;;;;20.67;10.93;;;;;;;6.17;42.96;100635.16;5125320;28;20221;-63
2022/03/13 06:40:51;;;;;;;20.70;10.10;;;;;;;6.18;42.95;100636.84;5123968;27;20631;-63
2022/03/13 06:43:19;;;;;;;18.37;9.80;;;;;;;6.41;42.50;100637.72;5127610;27;20237;-64
2022/03/13 06:45:50;;;;;;;19.67;10.63;;;;;;;6.74;41.73;100624.59;5127229;27;20857;-64
2022/03/13 06:48:21;;;;;;;20.47;10.33;;;;;;;6.94;41.35;100622.19;5127335;27;20209;-63
2022/03/13 06:50:53;;;;;;;22.33;10.97;;;;;;;6.96;40.82;100631.63;5124294;27;20228;-64
2022/03/13 06:53:21;;;;;;;18.83;10.87;;;;;;;7.01;40.58;100640.03;5126292;27;20195;-65
2022/03/13 06:55:49;;;;;;;18.70;11.07;;;;;;;7.06;40.59;100640.50;5123440;27;20770;-64
2022/03/13 06:58:18;;;;;;;21.97;11.00;;;;;;;6.70;41.25;100659.19;5124992;27;20224;-65
2022/03/13 07:00:50;;;;;;;17.70;10.23;;;;;;;6.89;40.18;100664.72;5126331;27;20210;-64
2022/03/13 07:03:19;;;;;;;22.27;10.43;;;;;;;6.89;40.47;100654.16;5123619;28;20212;-64
2022/03/13 07:05:47;;;;;;;19.33;11.43;;;;;;;7.15;39.94;100660.84;5124530;27;20210;-65
2022/03/13 07:08:16;;;;;;;17.90;10.47;;;;;;;7.31;39.29;100657.00;5129375;27;20222;-65
2022/03/13 07:10:46;;;;;;;20.10;11.53;;;;;;;7.32;39.32;100656.03;5127420;27;20230;-65
2022/03/13 07:13:18;;;;;;;20.37;10.07;;;;;;;7.36;39.17;100660.13;5122570;27;20321;-68
2022/03/13 07:15:47;;;;;;;16.30;9.40;;;;;;;7.34;39.71;100654.13;5124874;28;20595;-64
2022/03/13 07:18:20;;;;;;;15.97;9.37;;;;;;;7.34;38.86;100656.75;5126352;28;20740;-66
2022/03/13 07:20:48;;;;;;;18.27;10.37;;;;;;;7.44;38.39;100662.97;5125650;28;20211;-65
2022/03/13 07:23:15;;;;;;;16.57;9.90;;;;;;;6.91;38.79;100654.88;5127348;27;20202;-63
2022/03/13 07:25:43;;;;;;;16.63;9.87;;;;;;;7.36;38.27;100658.31;5128837;27;20888;-65
2022/03/13 07:28:13;;;;;;;15.87;9.47;;;;;;;7.54;38.13;100661.28;5129087;27;20642;-64
2022/03/13 07:30:40;;;;;;;19.33;10.70;;;;;;;7.53;38.34;100663.09;5125457;27;20219;-64
2022/03/13 07:33:10;;;;;;;17.93;10.17;;;;;;;7.50;38.32;100662.47;5123805;27;20245;-64
2022/03/13 07:35:38;;;;;;;16.70;9.13;;;;;;;7.62;37.54;100658.00;5123812;27;20303;-64
2022/03/13 07:38:08;;;;;;;18.37;10.30;;;;;;;7.67;37.48;100667.22;5128235;27;20651;-63
2022/03/13 07:40:36;;;;;;;17.33;10.63;;;;;;;7.62;38.01;100668.56;5127224;27;20215;-63
2022/03/13 07:43:05;;;;;;;22.17;10.60;;;;;;;7.68;37.91;100668.06;5123248;27;20234;-63
2022/03/13 07:45:33;;;;;;;16.30;10.30;;;;;;;7.58;38.52;100662.69;5126373;27;20231;-65
2022/03/13 07:48:01;;;;;;;15.90;9.60;;;;;;;7.77;38.34;100668.16;5127747;27;20207;-64
2022/03/13 07:50:34;;;;;;;21.67;10.77;;;;;;;7.90;37.87;100658.28;5125991;27;20682;-64
2022/03/13 07:53:02;;;;;;;18.70;11.07;;;;;;;7.94;38.20;100654.41;5127389;27;20230;-63
2022/03/13 07:55:30;;;;;;;19.67;10.73;;;;;;;7.71;38.16;100650.19;5125915;27;20211;-64
2022/03/13 07:57:59;;;;;;;19.43;10.30;;;;;;;8.09;37.83;100643.56;5126638;27;20278;-64
2022/03/13 08:00:27;;;;;;;18.13;10.90;;;;;;;8.21;37.97;100661.00;5127622;27;20292;-64
2022/03/13 08:02:55;;;;;;;17.60;10.70;;;;;;;8.25;38.26;100652.72;5126271;27;20248;-64
2022/03/13 08:05:23;;;;;;;15.63;9.97;;;;;;;8.20;37.60;100660.16;5125185;27;20234;-64
2022/03/13 08:08:03;;;;;;;18.27;10.60;;;;;;;8.45;37.81;100653.69;5127207;27;20217;-64
2022/03/13 08:10:34;;;;;;;21.47;10.70;;;;;;;8.72;37.55;100658.41;5126741;27;20208;-64
2022/03/13 08:13:01;;;;;;;18.80;10.60;;;;;;;8.62;37.35;100663.66;5124800;27;20242;-64
2022/03/13 08:15:36;;;;;;;18.93;11.03;;;;;;;8.77;37.22;100652.75;5126651;27;21145;-65
2022/03/13 08:18:10;;;;;;;17.03;10.90;;;;;;;8.92;36.60;100656.72;5123391;27;20239;-64
2022/03/13 08:20:40;;;;;;;19.53;10.93;;;;;;;8.86;37.17;100651.97;5127509;27;20220;-64
2022/03/13 08:23:09;;;;;;;18.47;11.03;;;;;;;10.71;34.77;100637.72;5124421;27;20216;-64
2022/03/13 08:25:36;;;;;;;16.93;10.77;;;;;;;14.34;29.35;100628.78;5123192;27;20301;-65
2022/03/13 08:28:11;;;;;;;15.70;10.27;;;;;;;16.31;27.47;100628.50;5127505;27;20209;-64
2022/03/13 08:30:39;;;;;;;18.63;10.70;;;;;;;15.26;27.89;100630.03;5125597;27;20210;-64
2022/03/13 08:33:07;;;;;;;18.90;10.97;;;;;;;14.85;28.39;100637.41;5124011;27;20298;-65
2022/03/13 08:35:35;;;;;;;16.60;10.23;;;;;;;14.87;28.62;100628.19;5122980;27;20278;-65
2022/03/13 08:38:03;;;;;;;15.00;10.40;;;;;;;15.55;27.89;100626.75;5124975;27;20208;-64
2022/03/13 08:40:32;;;;;;;22.47;11.30;;;;;;;15.24;27.33;100629.38;5124314;27;20654;-64
2022/03/13 08:43:10;;;;;;;18.33;10.90;;;;;;;15.39;27.99;100641.81;5124456;27;20588;-64
2022/03/13 08:45:38;;;;;;;14.60;10.10;;;;;;;15.50;27.41;100635.25;5126464;27;20219;-64
2022/03/13 08:48:06;;;;;;;13.77;10.03;;;;;;;16.97;25.68;100634.88;5127492;27;20220;-65
2022/03/13 08:50:34;;;;;;;16.00;10.70;;;;;;;18.22;23.55;100641.63;5123884;27;20580;-65
2022/03/13 08:53:02;;;;;;;19.80;11.10;;;;;;;19.86;22.66;100639.88;5126608;27;20201;-64
2022/03/13 08:55:29;;;;;;;15.30;11.23;;;;;;;21.97;20.40;100636.72;5125397;27;20291;-65
2022/03/13 08:58:01;;;;;;;16.37;11.37;;;;;;;20.86;21.29;100635.31;5126254;27;20207;-65
2022/03/13 09:00:35;;;;;;;15.63;11.40;;;;;;;22.29;19.79;100631.28;5122220;27;20292;-65
2022/03/13 09:03:03;;;;;;;16.67;11.63;;;;;;;22.16;20.04;100629.53;5124027;27;20205;-66
2022/03/13 09:05:31;;;;;;;14.83;11.63;;;;;;;21.96;19.34;100632.34;5124207;27;20229;-65
2022/03/13 09:08:01;;;;;;;18.17;11.53;;;;;;;24.00;18.04;100627.41;5124369;27;20677;-66
2022/03/13 09:10:29;;;;;;;12.95;10.52;;;;;;;23.77;18.09;100623.78;5120813;27;20297;-65
2022/03/13 09:12:58;;;;;;;14.88;10.98;;;;;;;26.20;16.86;100620.94;5122601;27;20236;-72
2022/03/13 09:15:28;;;;;;;16.95;12.80;;;;;;;26.11;16.74;100614.28;5121286;27;20910;-66
2022/03/13 09:17:55;;;;;;;18.65;12.05;;;;;;;27.52;15.67;100615.44;5123557;27;20212;-62
2022/03/13 09:20:24;;;;;;;13.40;11.50;;;;;;;24.35;17.23;100605.81;5124039;27;20320;-66
2022/03/13 09:22:51;;;;;;;13.40;10.45;;;;;;;25.62;16.64;100613.94;5124743;27;20205;-65
2022/03/13 09:25:20;;;;;;;14.68;11.75;;;;;;;19.56;21.57;100618.91;5125566;27;20254;-62
2022/03/13 09:27:48;;;;;;;20.10;12.07;;;;;;;18.00;23.65;100622.06;5126354;27;20254;-60
2022/03/13 09:30:16;;;;;;;16.70;12.27;;;;;;;17.83;23.64;100631.38;5125944;27;20225;-64
2022/03/13 09:32:49;;;;;;;14.48;12.57;;;;;;;17.90;23.67;100630.44;5123775;27;20214;-67
2022/03/13 09:35:19;;;;;;;17.70;12.57;;;;;;;19.82;21.60;100630.53;5124732;27;20229;-65
2022/03/13 09:37:49;;;;;;;16.35;13.23;;;;;;;25.39;16.90;100619.44;5123336;27;20213;-65
2022/03/13 09:40:21;;;;;;;14.95;12.40;;;;;;;27.07;15.69;100615.72;5125530;27;20310;-64
2022/03/13 09:42:49;;;;;;;20.05;13.13;;;;;;;24.31;17.46;100614.63;5124308;27;20713;-65
2022/03/13 09:45:18;;;;;;;17.17;12.93;;;;;;;23.92;18.04;100607.97;5125092;27;20312;-64
2022/03/13 09:47:48;;;;;;;14.48;11.52;;;;;;;22.55;18.98;100617.53;5124927;27;20213;-64
2022/03/13 09:50:17;;;;;;;17.65;12.30;;;;;;;22.05;19.54;100630.22;5126604;27;20387;-64
2022/03/13 09:52:45;;;;;;;16.17;12.45;;;;;;;24.61;17.43;100617.22;5124696;27;20289;-65
2022/03/13 09:55:15;;;;;;;15.35;12.55;;;;;;;25.30;16.89;100615.47;5125699;27;20704;-64
2022/03/13 09:57:46;;;;;;;15.32;12.20;;;;;;;29.61;14.32;100604.03;5121040;27;20210;-65
2022/03/13 10:00:16;;;;;;;17.85;12.30;;;;;;;28.61;14.63;100604.13;5124739;27;20232;-65
2022/03/13 10:02:45;;;;;;;15.75;12.23;;;;;;;31.02;12.81;100598.44;5120029;27;20287;-64
2022/03/13 10:05:16;;;;;;;13.85;12.18;;;;;;;31.71;12.66;100603.03;5120466;27;20205;-64
2022/03/13 10:07:55;;;;;;;14.27;12.77;;;;;;;29.51;13.95;100605.66;5123370;27;20281;-65
2022/03/13 10:10:24;;;;;;;16.20;13.48;;;;;;;25.05;17.03;100600.34;5122843;27;20295;-64
2022/03/13 10:12:51;;;;;;;17.63;13.13;;;;;;;23.52;17.70;100600.41;5116240;27;20547;-65
2022/03/13 10:15:19;;;;;;;14.52;12.93;;;;;;;23.63;18.17;100594.22;5122527;27;20209;-66
2022/03/13 10:17:48;;;;;;;17.73;13.10;;;;;;;24.55;17.25;100582.91;5123227;27;20734;-66
2022/03/13 10:20:19;;;;;;;14.90;12.80;;;;;;;26.02;16.13;100588.56;5127687;27;20593;-65
2022/03/13 10:22:50;;;;;;;16.50;13.35;;;;;;;23.54;17.83;100586.66;5127262;27;20204;-65
2022/03/13 10:25:31;;;;;;;14.25;12.75;;;;;;;24.42;17.43;100580.47;5126819;27;20243;-64
2022/03/13 10:28:13;;;;;;;15.95;12.73;;;;;;;23.37;18.30;100583.72;5126804;28;20196;-64
2022/03/13 10:30:44;;;;;;;15.02;13.10;;;;;;;24.33;18.11;100571.88;5127366;28;20193;-64
2022/03/13 10:33:12;;;;;;;15.75;13.32;;;;;;;25.08;16.04;100585.44;5125723;28;20201;-64
2022/03/13 10:35:42;;;;;;;14.32;12.18;;;;;;;25.10;16.43;100580.59;5127461;28;20215;-63
2022/03/13 10:38:18;;;;;;;15.32;12.93;;;;;;;25.39;15.81;100576.03;5127096;28;20207;-63
2022/03/13 10:40:46;;;;;;;16.13;13.07;;;;;;;25.73;16.17;100579.66;5126903;28;20228;-63
2022/03/13 10:43:19;;;;;;;18.45;13.35;;;;;;;25.09;15.85;100574.34;5126958;28;20296;-64
2022/03/13 10:45:53;;;;;;;14.23;11.93;;;;;;;23.79;17.93;100570.25;5124824;28;20229;-64
2022/03/13 10:48:28;;;;;;;15.20;12.95;;;;;;;26.81;15.70;100564.75;5127182;28;20297;-63
2022/03/13 10:51:02;;;;;;;16.38;12.65;;;;;;;23.27;17.96;100567.22;5126270;28;20204;-66
2022/03/13 10:53:35;;;;;;;18.02;12.18;;;;;;;22.74;18.66;100569.72;5127205;28;20197;-63
2022/03/13 10:56:08;;;;;;;20.17;13.15;;;;;;;22.53;18.97;100565.56;5126286;28;20296;-64
2022/03/13 10:58:39;;;;;;;15.05;13.32;;;;;;;21.70;19.43;100559.63;5129813;27;20237;-65
2022/03/13 11:01:09;;;;;;;17.33;13.75;;;;;;;20.48;20.36;100565.97;5127984;27;20723;-63
2022/03/13 11:03:47;;;;;;;15.50;13.52;;;;;;;19.76;20.95;100560.59;5125116;27;20198;-64
2022/03/13 11:06:29;;;;;;;;;;;;;;;;;;;;;
2022/03/13 11:08:58;;;;;;;15.43;13.05;;;;;;;20.22;21.91;100556.03;5129215;27;20205;-64
2022/03/13 11:11:28;;;;;;;18.77;14.35;;;;;;;18.77;22.46;100557.56;5130395;27;20205;-64
2022/03/13 11:13:59;;;;;;;16.05;13.18;;;;;;;18.45;23.55;100556.34;5126215;27;20229;-64
2022/03/13 11:16:28;;;;;;;22.27;13.60;;;;;;;18.84;23.14;100555.75;5126038;27;20876;-62
2022/03/13 11:19:02;;;;;;;23.30;13.48;;;;;;;19.35;22.11;100553.44;5130324;27;20703;-62
2022/03/13 11:21:31;;;;;;;16.23;13.60;;;;;;;19.21;22.46;100550.94;5129148;27;20221;-64
2022/03/13 11:24:00;;;;;;;17.10;13.40;;;;;;;18.61;22.29;100555.22;5130630;27;20347;-63
2022/03/13 11:26:30;;;;;;;18.38;13.48;;;;;;;18.22;24.05;100540.47;5130376;27;20220;-63
2022/03/13 11:29:00;;;;;;;16.02;13.27;;;;;;;18.50;23.61;100540.47;5127319;27;20213;-63
2022/03/13 11:31:30;;;;;;;16.27;13.25;;;;;;;18.51;23.81;100536.75;5129086;27;20209;-65
2022/03/13 11:34:13;;;;;;;16.80;13.57;;;;;;;18.50;23.28;100527.03;5130113;27;20205;-65